createdAt,value
2023-01-27T00:00:15.880Z,1490
2023-01-27T00:05:34.092Z,1490
2023-01-27T00:10:52.353Z,1519
2023-01-27T00:16:10.924Z,1528
2023-01-27T00:21:29.047Z,1530
2023-01-27T00:26:47.315Z,1543
2023-01-27T00:32:05.784Z,1564
2023-01-27T00:37:24.316Z,1627
2023-01-27T00:42:42.844Z,1646
2023-01-27T00:48:01.315Z,1665
2023-01-27T00:53:20.143Z,1599
2023-01-27T00:58:38.346Z,1576
2023-01-27T01:03:56.300Z,1563
2023-01-27T01:09:14.504Z,1564
2023-01-27T01:14:32.700Z,1556
2023-01-27T01:19:51.330Z,1568
2023-01-27T01:25:09.614Z,1566
2023-01-27T01:30:28.143Z,1570
2023-01-27T01:35:46.601Z,1569
2023-01-27T01:41:05.128Z,1559
2023-01-27T01:46:23.684Z,1567
2023-01-27T01:51:41.779Z,1563
2023-01-27T01:57:00.297Z,1610
2023-01-27T02:02:19.171Z,1603
2023-01-27T02:07:43.931Z,1600
2023-01-27T02:13:01.923Z,1597
2023-01-27T02:18:20.403Z,1590
2023-01-27T02:23:38.903Z,1565
2023-01-27T02:28:57.139Z,1558
2023-01-27T02:34:15.349Z,1568
2023-01-27T02:39:33.576Z,1591
2023-01-27T02:44:52.080Z,1572
2023-01-27T02:50:10.809Z,1541
2023-01-27T02:55:29.575Z,1545
2023-01-27T03:00:47.832Z,1565
2023-01-27T03:06:06.149Z,1570
2023-01-27T03:11:24.666Z,1552
2023-01-27T03:16:42.835Z,1541
2023-01-27T03:22:01.633Z,1550
2023-01-27T03:27:20.383Z,1543
2023-01-27T03:32:39.271Z,1527
2023-01-27T03:37:57.810Z,1522
2023-01-27T03:43:16.025Z,1521
2023-01-27T03:48:34.224Z,1519
2023-01-27T03:53:52.758Z,1530
2023-01-27T03:59:11.587Z,1531
2023-01-27T04:04:30.449Z,1521
2023-01-27T04:09:48.640Z,1528
2023-01-27T04:15:07.480Z,1526
2023-01-27T04:20:25.678Z,1526
2023-01-27T04:25:43.917Z,1512
2023-01-27T04:31:02.458Z,1514
2023-01-27T04:36:21.642Z,1519
2023-01-27T04:41:40.086Z,1520
2023-01-27T04:46:58.872Z,1559
2023-01-27T04:52:17.436Z,1544
2023-01-27T04:57:36.223Z,1519
2023-01-27T05:02:54.532Z,1527
2023-01-27T05:08:12.942Z,1515
2023-01-27T05:13:31.472Z,1521
2023-01-27T05:18:49.933Z,1584
2023-01-27T05:24:09.054Z,1584
2023-01-27T05:29:27.626Z,1564
2023-01-27T05:34:46.348Z,1394
2023-01-27T05:40:04.573Z,1439
2023-01-27T05:45:23.046Z,1463
2023-01-27T05:50:41.845Z,1459
2023-01-27T05:56:00.334Z,1462
2023-01-27T06:01:18.865Z,1464
2023-01-27T06:06:37.047Z,1454
2023-01-27T06:11:55.336Z,1441
2023-01-27T06:17:13.569Z,1425
2023-01-27T06:22:31.811Z,1410
2023-01-27T06:27:50.628Z,1393
2023-01-27T06:33:09.432Z,1387
2023-01-27T06:38:27.913Z,1378
2023-01-27T06:43:46.711Z,1354
2023-01-27T06:49:05.183Z,1349
2023-01-27T06:54:24.064Z,1337
2023-01-27T06:59:42.871Z,1335
2023-01-27T07:05:01.652Z,1335
2023-01-27T07:10:20.465Z,1333
2023-01-27T07:15:39.355Z,1323
2023-01-27T07:20:57.947Z,1356
2023-01-27T07:26:24.779Z,1358
2023-01-27T07:31:43.807Z,1369
2023-01-27T07:37:02.149Z,1370
2023-01-27T07:42:21.493Z,1358
2023-01-27T07:47:40.029Z,1343
2023-01-27T07:52:42.895Z,1335
2023-01-27T07:57:45.785Z,1326
2023-01-27T08:03:03.921Z,1307
2023-01-27T08:08:07.426Z,1290
2023-01-27T08:13:10.618Z,1281
2023-01-27T08:18:29.127Z,1276
2023-01-27T08:23:32.020Z,1268
2023-01-27T08:28:50.598Z,1263
2023-01-27T08:33:53.464Z,1262
2023-01-27T08:39:12.224Z,1248
2023-01-27T08:44:30.597Z,1245
2023-01-27T08:49:49.183Z,1243
2023-01-27T08:55:07.670Z,1230
2023-01-27T09:00:26.524Z,1222
2023-01-27T09:05:29.145Z,1220
2023-01-27T09:10:47.397Z,1214
2023-01-27T09:16:05.470Z,1205
2023-01-27T09:21:23.879Z,1199
2023-01-27T09:26:42.331Z,1192
2023-01-27T09:32:00.938Z,1180
2023-01-27T09:37:19.703Z,1167
2023-01-27T09:42:37.941Z,1164
2023-01-27T09:47:41.192Z,1150
2023-01-27T09:52:59.718Z,1146
2023-01-27T09:58:17.968Z,1144
2023-01-27T10:03:36.720Z,1129
2023-01-27T10:08:55.051Z,1124
2023-01-27T10:14:16.505Z,1126
2023-01-27T10:19:34.959Z,1121
2023-01-27T10:24:53.288Z,1115
2023-01-27T10:30:12.611Z,1115
2023-01-27T10:35:32.074Z,1117
2023-01-27T10:40:50.640Z,1111
2023-01-27T10:46:09.243Z,1102
2023-01-27T10:51:27.663Z,1098
2023-01-27T10:56:46.601Z,1090
2023-01-27T11:02:04.665Z,1082
2023-01-27T11:07:23.181Z,1075
2023-01-27T11:12:41.848Z,1060
2023-01-27T11:18:00.328Z,1046
2023-01-27T11:23:18.882Z,1035
2023-01-27T11:28:38.897Z,1016
2023-01-27T11:33:57.380Z,1009
2023-01-27T11:39:16.197Z,1007
2023-01-27T11:44:34.174Z,1000
2023-01-27T11:49:53.260Z,995
2023-01-27T11:55:11.766Z,994
2023-01-27T12:00:30.186Z,994
2023-01-27T12:05:48.457Z,993
2023-01-27T12:11:07.002Z,998
2023-01-27T12:16:25.362Z,995
2023-01-27T12:21:43.659Z,990
2023-01-27T12:27:02.423Z,982
2023-01-27T12:32:21.495Z,975
2023-01-27T12:37:39.841Z,977
2023-01-27T12:42:57.765Z,977
2023-01-27T12:48:16.592Z,971
2023-01-27T12:53:35.153Z,967
2023-01-27T12:58:53.667Z,959
2023-01-27T13:03:56.660Z,959
2023-01-27T13:09:15.094Z,968
2023-01-27T13:14:33.532Z,979
2023-01-27T13:19:52.196Z,964
2023-01-27T13:25:10.138Z,949
2023-01-27T13:30:28.701Z,940
2023-01-27T13:35:47.496Z,934
2023-01-27T13:41:05.683Z,925
2023-01-27T13:46:24.261Z,912
2023-01-27T13:51:42.671Z,910
2023-01-27T13:57:01.094Z,906
2023-01-27T14:02:19.515Z,907
2023-01-27T14:07:38.139Z,903
2023-01-27T14:12:56.929Z,897
2023-01-27T14:18:15.498Z,897
2023-01-27T14:23:34.041Z,902
2023-01-27T14:28:53.104Z,901
2023-01-27T14:34:11.657Z,914
2023-01-27T14:39:30.439Z,909
2023-01-27T14:44:55.792Z,900
2023-01-27T14:50:33.815Z,916
2023-01-27T14:55:52.667Z,941
2023-01-27T15:01:12.097Z,959
2023-01-27T15:06:30.267Z,965
2023-01-27T15:11:50.238Z,969
2023-01-27T15:17:08.831Z,985
2023-01-27T15:22:27.627Z,982
2023-01-27T15:27:46.196Z,980
2023-01-27T15:33:04.701Z,972
2023-01-27T15:38:23.233Z,970
2023-01-27T15:43:41.533Z,969
2023-01-27T15:48:59.890Z,962
2023-01-27T15:54:17.969Z,958
2023-01-27T15:59:36.500Z,947
2023-01-27T16:04:59.935Z,933
2023-01-27T16:10:18.554Z,938
2023-01-27T16:15:37.009Z,937
2023-01-27T16:20:55.220Z,929
2023-01-27T16:26:13.934Z,936
2023-01-27T16:31:33.009Z,927
2023-01-27T16:36:51.223Z,925
2023-01-27T16:42:09.451Z,923
2023-01-27T16:47:27.711Z,922
2023-01-27T16:52:46.834Z,923
2023-01-27T16:58:05.310Z,916
2023-01-27T17:03:23.411Z,912
2023-01-27T17:08:42.101Z,913
2023-01-27T17:14:00.618Z,886
2023-01-27T17:19:18.875Z,869
2023-01-27T17:24:37.801Z,881
2023-01-27T17:29:56.694Z,933
2023-01-27T17:35:16.009Z,938
2023-01-27T17:40:34.426Z,946
2023-01-27T17:45:53.124Z,954
2023-01-27T17:51:11.755Z,966
2023-01-27T17:56:31.012Z,949
2023-01-27T18:01:50.269Z,922
2023-01-27T18:07:08.983Z,893
2023-01-27T18:12:27.448Z,863
2023-01-27T18:17:45.997Z,836
2023-01-27T18:23:03.930Z,816
2023-01-27T18:28:22.786Z,806
2023-01-27T18:33:42.965Z,816
2023-01-27T18:39:02.474Z,840
2023-01-27T18:44:21.131Z,871
2023-01-27T18:49:24.076Z,901
2023-01-27T18:54:42.430Z,932
2023-01-27T19:00:01.230Z,961
2023-01-27T19:05:19.947Z,961
2023-01-27T19:10:38.200Z,918
2023-01-27T19:15:57.002Z,890
2023-01-27T19:21:15.445Z,863
2023-01-27T19:26:34.420Z,862
2023-01-27T19:31:53.510Z,855
2023-01-27T19:37:12.343Z,851
2023-01-27T19:42:30.816Z,841
2023-01-27T19:47:49.002Z,836
2023-01-27T19:53:07.481Z,824
2023-01-27T19:58:26.031Z,816
2023-01-27T20:03:44.545Z,811
2023-01-27T20:09:02.791Z,804
2023-01-27T20:14:21.108Z,795
2023-01-27T20:19:39.479Z,801
2023-01-27T20:24:57.570Z,818
2023-01-27T20:30:16.322Z,834
2023-01-27T20:35:34.331Z,854
2023-01-27T20:40:52.289Z,867
2023-01-27T20:46:11.832Z,885
2023-01-27T20:51:30.946Z,916
2023-01-27T20:56:49.389Z,939
2023-01-27T21:02:07.942Z,951
2023-01-27T21:07:26.749Z,974
2023-01-27T21:12:45.497Z,984
2023-01-27T21:18:04.003Z,993
2023-01-27T21:23:25.227Z,1004
2023-01-27T21:28:44.285Z,1004
2023-01-27T21:34:03.061Z,1013
2023-01-27T21:39:21.544Z,1017
2023-01-27T21:44:40.544Z,1020
2023-01-27T21:49:59.064Z,1031
2023-01-27T21:55:17.870Z,1039
2023-01-27T22:00:36.398Z,1052
2023-01-27T22:05:54.769Z,1070
2023-01-27T22:11:15.326Z,1080
2023-01-27T22:16:33.599Z,1101
2023-01-27T22:21:52.014Z,1107
2023-01-27T22:27:09.963Z,1126
2023-01-27T22:32:28.383Z,1149
2023-01-27T22:37:47.060Z,1168
2023-01-27T22:43:05.008Z,1176
2023-01-27T22:48:23.818Z,1183
2023-01-27T22:53:42.350Z,1185
2023-01-27T22:59:00.838Z,1200
2023-01-27T23:04:19.349Z,1202
2023-01-27T23:09:37.870Z,1206
2023-01-27T23:14:56.610Z,1208
2023-01-27T23:20:15.098Z,1212
2023-01-27T23:25:33.593Z,1211
2023-01-27T23:30:52.238Z,1213
2023-01-27T23:36:10.874Z,1211
2023-01-27T23:41:29.753Z,1215
2023-01-27T23:46:48.505Z,1214
2023-01-27T23:52:06.982Z,1211
2023-01-27T23:57:25.274Z,1214
